createdAt,value
2022-10-05T00:00:48.930Z,4.43
2022-10-05T00:05:50.627Z,4.38
2022-10-05T00:10:52.562Z,3.55
2022-10-05T00:16:19.244Z,4.38
2022-10-05T00:21:23.982Z,3.97
2022-10-05T00:26:31.539Z,3.53
2022-10-05T00:31:35.904Z,4.00
2022-10-05T00:36:39.370Z,4.13
2022-10-05T00:42:12.728Z,4.15
2022-10-05T00:47:31.994Z,4.25
2022-10-05T00:52:51.991Z,4.25
2022-10-05T00:58:03.480Z,5.32
2022-10-05T01:03:26.280Z,3.70
2022-10-05T01:08:58.980Z,4.40
2022-10-05T01:14:25.724Z,4.30
2022-10-05T01:19:46.111Z,4.38
2022-10-05T01:25:07.400Z,4.90
2022-10-05T01:30:14.070Z,4.40
2022-10-05T01:35:15.869Z,4.28
2022-10-05T01:40:45.915Z,4.32
2022-10-05T01:46:23.387Z,5.00
2022-10-05T01:51:53.364Z,4.03
2022-10-05T01:57:05.048Z,4.30
2022-10-05T02:02:12.341Z,5.20
2022-10-05T02:07:29.044Z,4.82
2022-10-05T02:12:36.491Z,4.90
2022-10-05T02:17:46.385Z,4.90
2022-10-05T02:22:53.465Z,4.60
2022-10-05T02:28:04.567Z,4.13
2022-10-05T02:33:28.690Z,5.05
2022-10-05T02:38:57.525Z,5.05
2022-10-05T02:44:17.498Z,4.35
2022-10-05T02:49:31.153Z,4.97
2022-10-05T02:55:09.582Z,4.72
2022-10-05T03:00:29.901Z,4.88
2022-10-05T03:10:56.788Z,5.60
2022-10-05T03:16:32.718Z,5.75
2022-10-05T03:22:16.895Z,4.63
2022-10-05T03:27:44.792Z,5.13
2022-10-05T03:32:55.202Z,5.13
2022-10-05T03:37:57.211Z,5.70
2022-10-05T03:43:18.578Z,5.28
2022-10-05T03:48:54.795Z,5.63
2022-10-05T03:54:32.431Z,5.20
2022-10-05T04:00:03.395Z,5.13
2022-10-05T04:05:21.760Z,4.95
2022-10-05T04:10:25.994Z,5.55
2022-10-05T04:15:38.035Z,5.25
2022-10-05T04:21:00.908Z,5.60
2022-10-05T04:26:09.455Z,6.00
2022-10-05T04:31:17.206Z,6.07
2022-10-05T04:36:39.763Z,5.45
2022-10-05T04:42:09.443Z,5.85
2022-10-05T04:47:15.020Z,5.72
2022-10-05T04:52:35.770Z,5.60
2022-10-05T04:57:49.121Z,6.75
2022-10-05T05:03:27.041Z,6.40
2022-10-05T05:08:44.693Z,6.00
2022-10-05T05:14:01.404Z,6.50
2022-10-05T05:19:25.782Z,6.68
2022-10-05T05:24:30.382Z,6.60
2022-10-05T05:29:42.723Z,7.63
2022-10-05T05:35:27.243Z,6.57
2022-10-05T05:40:36.171Z,7.43
2022-10-05T05:45:41.787Z,7.72
2022-10-05T05:51:12.051Z,7.45
2022-10-05T05:56:37.234Z,6.88
2022-10-05T06:01:45.136Z,7.45
2022-10-05T06:06:52.207Z,6.68
2022-10-05T06:12:02.101Z,8.00
2022-10-05T06:17:12.178Z,7.75
2022-10-05T06:22:30.536Z,7.60
2022-10-05T06:27:58.076Z,7.60
2022-10-05T06:33:24.951Z,7.45
2022-10-05T06:38:56.422Z,6.53
2022-10-05T06:44:09.148Z,7.60
2022-10-05T06:50:07.578Z,8.45
2022-10-05T06:55:47.068Z,7.65
2022-10-05T07:01:10.512Z,7.85
2022-10-05T07:06:25.325Z,7.75
2022-10-05T07:11:52.743Z,7.95
2022-10-05T07:17:23.025Z,7.13
2022-10-05T07:22:54.097Z,8.18
2022-10-05T07:28:13.435Z,7.60
2022-10-05T07:33:26.292Z,7.53
2022-10-05T07:39:02.335Z,7.57
2022-10-05T07:44:27.147Z,7.25
2022-10-05T07:49:52.980Z,5.47
2022-10-05T07:55:00.765Z,7.70
2022-10-05T08:00:10.680Z,6.97
2022-10-05T08:05:23.260Z,6.70
2022-10-05T08:10:49.180Z,5.05
2022-10-05T08:16:02.122Z,6.10
2022-10-05T08:21:11.816Z,5.47
2022-10-05T08:31:24.523Z,5.80
2022-10-05T08:37:03.122Z,4.70
2022-10-05T08:42:42.439Z,5.65
2022-10-05T08:48:16.489Z,5.38
2022-10-05T08:53:26.036Z,5.25
2022-10-05T08:58:59.790Z,5.35
2022-10-05T09:04:28.198Z,4.63
2022-10-05T09:10:01.831Z,5.80
2022-10-05T09:15:26.432Z,5.80
2022-10-05T09:20:53.823Z,6.05
2022-10-05T09:25:58.918Z,5.68
2022-10-05T09:31:21.914Z,5.30
2022-10-05T09:36:48.047Z,5.72
2022-10-05T09:42:24.196Z,4.15
2022-10-05T09:47:28.500Z,5.05
2022-10-05T09:52:44.789Z,4.68
2022-10-05T09:58:14.718Z,4.00
2022-10-05T10:08:47.334Z,4.05
2022-10-05T10:14:09.575Z,3.58
2022-10-05T10:19:30.108Z,3.17
2022-10-05T10:24:51.208Z,3.25
2022-10-05T10:30:08.597Z,3.10
2022-10-05T10:35:40.924Z,3.03
2022-10-05T10:41:19.660Z,2.72
2022-10-05T10:47:08.411Z,2.65
2022-10-05T10:52:20.306Z,2.80
2022-10-05T10:58:03.589Z,2.47
2022-10-05T11:03:34.070Z,2.78
2022-10-05T11:08:50.868Z,1.95
2022-10-05T11:14:21.186Z,3.13
2022-10-05T11:20:04.081Z,2.20
2022-10-05T11:25:34.089Z,2.38
2022-10-05T11:31:09.768Z,2.58
2022-10-05T11:36:14.070Z,2.17
2022-10-05T11:41:36.962Z,2.40
2022-10-05T11:46:51.650Z,2.03
2022-10-05T11:52:19.719Z,2.53
2022-10-05T11:57:33.657Z,2.80
2022-10-05T12:03:01.847Z,2.05
2022-10-05T12:08:15.463Z,2.10
2022-10-05T12:13:34.623Z,2.70
2022-10-05T12:18:39.510Z,2.30
2022-10-05T12:23:56.810Z,2.15
2022-10-05T12:29:25.908Z,2.60
2022-10-05T12:34:47.247Z,2.45
2022-10-05T12:39:58.956Z,2.97
2022-10-05T12:45:00.463Z,2.42
2022-10-05T12:50:43.015Z,2.25
2022-10-05T12:55:56.358Z,1.80
2022-10-05T13:01:02.972Z,2.70
2022-10-05T13:06:28.796Z,2.20
2022-10-05T13:11:47.865Z,2.25
2022-10-05T13:17:07.474Z,2.40
2022-10-05T13:22:33.187Z,2.30
2022-10-05T13:27:40.032Z,2.30
2022-10-05T13:33:06.432Z,2.40
2022-10-05T13:38:24.588Z,2.25
2022-10-05T13:43:51.591Z,2.20
2022-10-05T13:49:18.869Z,2.13
2022-10-05T13:54:48.261Z,2.35
2022-10-05T14:00:07.909Z,2.30
2022-10-05T14:05:20.806Z,1.90
2022-10-05T14:10:38.638Z,2.47
2022-10-05T14:15:50.131Z,2.03
2022-10-05T14:21:25.783Z,1.80
2022-10-05T14:26:34.760Z,1.60
2022-10-05T15:32:49.794Z,1.50
2022-10-05T15:38:08.855Z,1.80
2022-10-05T15:43:16.275Z,1.93
2022-10-05T15:48:47.270Z,1.80
2022-10-05T15:54:31.292Z,1.60
2022-10-05T16:00:07.921Z,1.77
2022-10-05T16:05:47.120Z,1.63
2022-10-05T16:11:03.955Z,1.45
2022-10-05T16:16:43.086Z,1.80
2022-10-05T16:22:14.058Z,2.10
2022-10-05T16:27:41.314Z,2.08
2022-10-05T16:32:55.637Z,2.38
2022-10-05T16:38:16.111Z,1.90
2022-10-05T16:43:26.446Z,1.90
2022-10-05T16:48:44.642Z,1.85
2022-10-05T16:54:04.971Z,1.73
2022-10-05T16:59:25.414Z,1.70
2022-10-05T17:04:40.046Z,1.80
2022-10-05T17:10:07.723Z,1.83
2022-10-05T17:15:32.335Z,1.77
2022-10-05T17:20:47.023Z,2.00
2022-10-05T17:26:08.005Z,1.90
2022-10-05T17:31:17.209Z,2.05
2022-10-05T17:36:19.034Z,2.10
2022-10-05T17:41:26.369Z,2.08
2022-10-05T17:46:39.365Z,2.10
2022-10-05T17:51:59.498Z,2.00
2022-10-05T17:57:04.503Z,2.38
2022-10-05T18:02:43.787Z,1.98
2022-10-05T18:07:50.794Z,2.00
2022-10-05T18:13:01.753Z,2.10
2022-10-05T18:18:45.964Z,2.08
2022-10-05T18:24:04.335Z,3.03
2022-10-05T18:29:44.133Z,1.95
2022-10-05T18:35:02.337Z,1.87
2022-10-05T18:40:43.651Z,1.70
2022-10-05T18:46:19.740Z,1.60
2022-10-05T18:51:52.778Z,1.30
2022-10-05T18:56:54.767Z,1.25
2022-10-05T19:02:20.916Z,2.55
2022-10-05T19:07:37.639Z,1.30
2022-10-05T19:13:02.330Z,1.67
2022-10-05T19:18:19.322Z,1.35
2022-10-05T19:23:50.291Z,1.20
2022-10-05T19:29:36.535Z,1.33
2022-10-05T19:34:42.516Z,1.42
2022-10-05T19:40:08.859Z,1.40
2022-10-05T19:45:27.942Z,1.17
2022-10-05T19:50:33.542Z,1.05
2022-10-05T19:55:47.053Z,1.45
2022-10-05T20:00:55.482Z,1.50
2022-10-05T20:06:05.516Z,1.00
2022-10-05T20:11:14.343Z,1.38
2022-10-05T20:16:35.102Z,1.27
2022-10-05T20:21:50.265Z,1.35
2022-10-05T20:27:16.231Z,1.60
2022-10-05T20:32:18.199Z,1.30
2022-10-05T20:37:20.131Z,1.20
2022-10-05T20:42:23.804Z,1.20
2022-10-05T20:47:26.237Z,1.50
2022-10-05T20:52:27.811Z,1.30
2022-10-05T20:57:29.458Z,1.35
2022-10-05T21:02:31.202Z,1.33
2022-10-05T21:07:34.219Z,1.48
2022-10-05T21:12:35.905Z,1.40
2022-10-05T21:17:41.657Z,1.50
2022-10-05T21:22:43.244Z,1.48
2022-10-05T21:27:46.308Z,1.45
2022-10-05T21:32:47.872Z,1.40
2022-10-05T21:37:49.514Z,1.35
2022-10-05T21:42:51.081Z,0.70
2022-10-05T21:47:52.771Z,0.30
2022-10-05T21:52:54.665Z,0.47
2022-10-05T22:02:58.759Z,0.40
2022-10-05T22:08:00.620Z,0.40
2022-10-05T22:13:03.812Z,0.50
2022-10-05T22:18:18.806Z,0.52
2022-10-05T22:23:28.835Z,0.52
2022-10-05T22:28:33.975Z,0.70
2022-10-05T22:38:55.284Z,0.80
2022-10-05T22:43:56.857Z,0.68
2022-10-05T22:48:58.640Z,0.77
2022-10-05T22:54:00.198Z,0.50
2022-10-05T22:59:01.796Z,1.08
2022-10-05T23:04:04.444Z,0.40
2022-10-05T23:09:06.094Z,0.60
2022-10-05T23:14:07.602Z,0.30
2022-10-05T23:19:09.609Z,0.13
2022-10-05T23:24:11.281Z,0.25
2022-10-05T23:29:12.913Z,0.30
2022-10-05T23:34:14.498Z,0.38
2022-10-05T23:39:16.178Z,0.43
2022-10-05T23:44:17.920Z,0.28
2022-10-05T23:49:19.633Z,0.40
2022-10-05T23:54:21.170Z,0.68
2022-10-05T23:59:22.816Z,0.40
